sensor_id;sensor_type;location;lat;lon;timestamp;pressure;altitude;pressure_sealevel;temperature;humidity
27587;BME280;15019;49.002;8.420;2022-09-09T00:01:51;99819.44;;;16.62;100.00
27587;BME280;15019;49.002;8.420;2022-09-09T00:04:23;99811.78;;;16.61;100.00
27587;BME280;15019;49.002;8.420;2022-09-09T00:06:53;99819.44;;;16.62;100.00
27587;BME280;15019;49.002;8.420;2022-09-09T00:09:21;99808.63;;;16.53;100.00
27587;BME280;15019;49.002;8.420;2022-09-09T00:11:48;99808.41;;;16.59;100.00
27587;BME280;15019;49.002;8.420;2022-09-09T00:14:37;99816.97;;;16.58;100.00
27587;BME280;15019;49.002;8.420;2022-09-09T00:17:08;99810.22;;;16.55;100.00
27587;BME280;15019;49.002;8.420;2022-09-09T00:19:55;99812.78;;;16.55;100.00
27587;BME280;15019;49.002;8.420;2022-09-09T00:22:24;99815.22;;;16.60;100.00
27587;BME280;15019;49.002;8.420;2022-09-09T00:24:54;99820.34;;;16.60;100.00
27587;BME280;15019;49.002;8.420;2022-09-09T00:29:56;99811.91;;;16.56;100.00
27587;BME280;15019;49.002;8.420;2022-09-09T00:32:22;99808.69;;;16.51;100.00
27587;BME280;15019;49.002;8.420;2022-09-09T00:34:53;99813.94;;;16.46;100.00
27587;BME280;15019;49.002;8.420;2022-09-09T00:37:19;99820.72;;;16.47;100.00
27587;BME280;15019;49.002;8.420;2022-09-09T00:39:45;99813.16;;;16.43;100.00
27587;BME280;15019;49.002;8.420;2022-09-09T00:42:13;99815.69;;;16.44;100.00
27587;BME280;15019;49.002;8.420;2022-09-09T00:45:02;99808.81;;;16.46;100.00
27587;BME280;15019;49.002;8.420;2022-09-09T00:47:39;99803.69;;;16.46;100.00
27587;BME280;15019;49.002;8.420;2022-09-09T00:50:11;99810.47;;;16.47;100.00
27587;BME280;15019;49.002;8.420;2022-09-09T00:55:15;99815.50;;;16.51;100.00
27587;BME280;15019;49.002;8.420;2022-09-09T00:57:41;99818.75;;;16.56;100.00
27587;BME280;15019;49.002;8.420;2022-09-09T01:05:46;99822.84;;;16.63;100.00
27587;BME280;15019;49.002;8.420;2022-09-09T01:08:32;99817.91;;;16.55;100.00
27587;BME280;15019;49.002;8.420;2022-09-09T01:11:00;99825.53;;;16.57;100.00
27587;BME280;15019;49.002;8.420;2022-09-09T01:13:26;99827.31;;;16.55;100.00
27587;BME280;15019;49.002;8.420;2022-09-09T01:15:53;99832.22;;;16.62;100.00
27587;BME280;15019;49.002;8.420;2022-09-09T01:18:19;99838.94;;;16.65;100.00
27587;BME280;15019;49.002;8.420;2022-09-09T01:20:49;99847.25;;;16.73;100.00
27587;BME280;15019;49.002;8.420;2022-09-09T01:26:04;99853.94;;;16.77;100.00
27587;BME280;15019;49.002;8.420;2022-09-09T01:28:34;99848.50;;;16.86;100.00
27587;BME280;15019;49.002;8.420;2022-09-09T01:30:59;99858.34;;;16.98;100.00
27587;BME280;15019;49.002;8.420;2022-09-09T01:33:25;99852.56;;;16.93;100.00
27587;BME280;15019;49.002;8.420;2022-09-09T01:38:19;99845.28;;;16.81;100.00
27587;BME280;15019;49.002;8.420;2022-09-09T01:40:44;99852.47;;;16.70;100.00
27587;BME280;15019;49.002;8.420;2022-09-09T01:43:09;99845.09;;;16.59;100.00
27587;BME280;15019;49.002;8.420;2022-09-09T01:45:35;99845.34;;;16.52;100.00
27587;BME280;15019;49.002;8.420;2022-09-09T01:48:00;99843.03;;;16.42;100.00
27587;BME280;15019;49.002;8.420;2022-09-09T01:50:25;99847.53;;;16.36;100.00
27587;BME280;15019;49.002;8.420;2022-09-09T01:52:52;99843.63;;;16.24;100.00
27587;BME280;15019;49.002;8.420;2022-09-09T01:55:20;99840.13;;;16.27;100.00
27587;BME280;15019;49.002;8.420;2022-09-09T02:00:13;99830.31;;;16.13;100.00
27587;BME280;15019;49.002;8.420;2022-09-09T02:03:03;99828.84;;;16.06;100.00
27587;BME280;15019;49.002;8.420;2022-09-09T02:07:50;99827.25;;;16.02;100.00
27587;BME280;15019;49.002;8.420;2022-09-09T02:10:20;99817.28;;;15.93;100.00
27587;BME280;15019;49.002;8.420;2022-09-09T02:12:47;99819.81;;;15.94;100.00
27587;BME280;15019;49.002;8.420;2022-09-09T02:15:17;99810.59;;;15.89;100.00
27587;BME280;15019;49.002;8.420;2022-09-09T02:17:45;99810.69;;;15.86;100.00
27587;BME280;15019;49.002;8.420;2022-09-09T02:20:12;99815.81;;;15.86;100.00
27587;BME280;15019;49.002;8.420;2022-09-09T02:22:37;99815.81;;;15.86;100.00
27587;BME280;15019;49.002;8.420;2022-09-09T02:25:04;99807.38;;;15.82;100.00
27587;BME280;15019;49.002;8.420;2022-09-09T02:27:31;99799.09;;;15.74;100.00
27587;BME280;15019;49.002;8.420;2022-09-09T02:29:56;99806.94;;;15.68;100.00
27587;BME280;15019;49.002;8.420;2022-09-09T02:32:24;99804.44;;;15.66;100.00
27587;BME280;15019;49.002;8.420;2022-09-09T02:34:51;99806.13;;;15.67;100.00
27587;BME280;15019;49.002;8.420;2022-09-09T02:37:18;99799.47;;;15.60;100.00
27587;BME280;15019;49.002;8.420;2022-09-09T02:39:45;99792.84;;;15.53;100.00
27587;BME280;15019;49.002;8.420;2022-09-09T02:42:11;99809.81;;;15.57;100.00
27587;BME280;15019;49.002;8.420;2022-09-09T02:44:36;99806.28;;;15.61;100.00
27587;BME280;15019;49.002;8.420;2022-09-09T02:49:37;99798.22;;;15.44;100.00
27587;BME280;15019;49.002;8.420;2022-09-09T02:52:06;99800.22;;;15.33;100.00
27587;BME280;15019;49.002;8.420;2022-09-09T02:54:32;99784.03;;;15.34;100.00
27587;BME280;15019;49.002;8.420;2022-09-09T02:57:03;99789.22;;;15.31;100.00
27587;BME280;15019;49.002;8.420;2022-09-09T02:59:29;99795.13;;;15.33;100.00
27587;BME280;15019;49.002;8.420;2022-09-09T03:01:54;99795.28;;;15.27;100.00
27587;BME280;15019;49.002;8.420;2022-09-09T03:04:19;99792.81;;;15.24;100.00
27587;BME280;15019;49.002;8.420;2022-09-09T03:06:45;99786.03;;;15.23;100.00
27587;BME280;15019;49.002;8.420;2022-09-09T03:09:10;99791.13;;;15.24;100.00
27587;BME280;15019;49.002;8.420;2022-09-09T03:11:35;99785.13;;;15.25;100.00
27587;BME280;15019;49.002;8.420;2022-09-09T03:14:01;99784.97;;;15.30;100.00
27587;BME280;15019;49.002;8.420;2022-09-09T03:16:26;99791.59;;;15.37;100.00
27587;BME280;15019;49.002;8.420;2022-09-09T03:18:51;99794.94;;;15.39;100.00
27587;BME280;15019;49.002;8.420;2022-09-09T03:21:16;99801.81;;;15.37;100.00
27587;BME280;15019;49.002;8.420;2022-09-09T03:23:42;99800.22;;;15.33;100.00
27587;BME280;15019;49.002;8.420;2022-09-09T03:26:07;99805.34;;;15.33;100.00
27587;BME280;15019;49.002;8.420;2022-09-09T03:28:32;99803.66;;;15.32;100.00
27587;BME280;15019;49.002;8.420;2022-09-09T03:30:59;99814.78;;;15.29;100.00
27587;BME280;15019;49.002;8.420;2022-09-09T03:33:24;99815.72;;;15.27;100.00
27587;BME280;15019;49.002;8.420;2022-09-09T03:35:49;99817.31;;;15.31;100.00
27587;BME280;15019;49.002;8.420;2022-09-09T03:38:14;99808.00;;;15.28;100.00
27587;BME280;15019;49.002;8.420;2022-09-09T03:40:39;99804.53;;;15.31;100.00
27587;BME280;15019;49.002;8.420;2022-09-09T03:43:12;99799.63;;;15.25;100.00
27587;BME280;15019;49.002;8.420;2022-09-09T03:45:37;99802.38;;;15.16;100.00
27587;BME280;15019;49.002;8.420;2022-09-09T03:48:03;99806.00;;;15.09;100.00
27587;BME280;15019;49.002;8.420;2022-09-09T03:50:28;99804.47;;;15.01;100.00
27587;BME280;15019;49.002;8.420;2022-09-09T03:52:53;99797.78;;;14.97;100.00
27587;BME280;15019;49.002;8.420;2022-09-09T03:55:18;99803.91;;;14.90;100.00
27587;BME280;15019;49.002;8.420;2022-09-09T03:57:43;99803.03;;;14.91;100.00
27587;BME280;15019;49.002;8.420;2022-09-09T04:00:09;99798.00;;;14.88;100.00
27587;BME280;15019;49.002;8.420;2022-09-09T04:02:34;99803.03;;;14.91;100.00
27587;BME280;15019;49.002;8.420;2022-09-09T04:04:59;99816.69;;;14.90;100.00
27587;BME280;15019;49.002;8.420;2022-09-09T04:07:24;99814.00;;;14.95;100.00
27587;BME280;15019;49.002;8.420;2022-09-09T04:09:50;99809.59;;;15.01;100.00
27587;BME280;15019;49.002;8.420;2022-09-09T04:12:15;99811.16;;;15.06;100.00
27587;BME280;15019;49.002;8.420;2022-09-09T04:14:40;99813.63;;;15.10;100.00
27587;BME280;15019;49.002;8.420;2022-09-09T04:17:05;99818.25;;;15.27;100.00
27587;BME280;15019;49.002;8.420;2022-09-09T04:19:30;99819.75;;;15.35;100.00
27587;BME280;15019;49.002;8.420;2022-09-09T04:21:56;99820.41;;;15.42;100.00
27587;BME280;15019;49.002;8.420;2022-09-09T04:24:21;99827.34;;;15.37;100.00
27587;BME280;15019;49.002;8.420;2022-09-09T04:26:46;99831.81;;;15.30;100.00
27587;BME280;15019;49.002;8.420;2022-09-09T04:29:11;99829.06;;;15.36;100.00
27587;BME280;15019;49.002;8.420;2022-09-09T04:31:36;99824.72;;;15.40;100.00
27587;BME280;15019;49.002;8.420;2022-09-09T04:34:01;99825.44;;;15.45;100.00
27587;BME280;15019;49.002;8.420;2022-09-09T04:36:27;99829.53;;;15.51;100.00
27587;BME280;15019;49.002;8.420;2022-09-09T04:38:52;99833.88;;;15.47;100.00
27587;BME280;15019;49.002;8.420;2022-09-09T04:41:17;99835.44;;;15.53;100.00
27587;BME280;15019;49.002;8.420;2022-09-09T04:43:42;99838.91;;;15.50;100.00
27587;BME280;15019;49.002;8.420;2022-09-09T04:46:08;99842.13;;;15.58;100.00
27587;BME280;15019;49.002;8.420;2022-09-09T04:48:33;99844.66;;;15.60;100.00
27587;BME280;15019;49.002;8.420;2022-09-09T04:51:03;99847.94;;;15.65;100.00
27587;BME280;15019;49.002;8.420;2022-09-09T04:53:28;99852.19;;;15.64;100.00
27587;BME280;15019;49.002;8.420;2022-09-09T04:56:01;99859.06;;;15.62;100.00
27587;BME280;15019;49.002;8.420;2022-09-09T04:58:26;99852.19;;;15.64;100.00
27587;BME280;15019;49.002;8.420;2022-09-09T05:00:51;99850.34;;;15.69;100.00
27587;BME280;15019;49.002;8.420;2022-09-09T05:03:16;99858.88;;;15.68;100.00
27587;BME280;15019;49.002;8.420;2022-09-09T05:05:42;99864.00;;;15.68;100.00
27587;BME280;15019;49.002;8.420;2022-09-09T05:08:07;99867.50;;;15.66;100.00
27587;BME280;15019;49.002;8.420;2022-09-09T05:10:34;99854.13;;;15.56;100.00
27587;BME280;15019;49.002;8.420;2022-09-09T05:12:59;99861.84;;;15.53;100.00
27587;BME280;15019;49.002;8.420;2022-09-09T05:15:24;99861.84;;;15.55;100.00
27587;BME280;15019;49.002;8.420;2022-09-09T05:17:49;99859.13;;;15.59;100.00
27587;BME280;15019;49.002;8.420;2022-09-09T05:20:14;99868.22;;;15.69;100.00
27587;BME280;15019;49.002;8.420;2022-09-09T05:22:40;99867.19;;;15.77;100.00
27587;BME280;15019;49.002;8.420;2022-09-09T05:25:05;99868.09;;;15.74;100.00
27587;BME280;15019;49.002;8.420;2022-09-09T05:27:30;99866.34;;;15.76;100.00
27587;BME280;15019;49.002;8.420;2022-09-09T05:29:55;99875.41;;;15.88;100.00
27587;BME280;15019;49.002;8.420;2022-09-09T05:32:20;99868.50;;;15.90;100.00
27587;BME280;15019;49.002;8.420;2022-09-09T05:34:46;99883.75;;;15.93;100.00
27587;BME280;15019;49.002;8.420;2022-09-09T05:37:11;99879.34;;;15.99;100.00
27587;BME280;15019;49.002;8.420;2022-09-09T05:39:36;99879.97;;;16.06;100.00
27587;BME280;15019;49.002;8.420;2022-09-09T05:42:01;99874.88;;;16.06;100.00
27587;BME280;15019;49.002;8.420;2022-09-09T05:44:27;99879.22;;;16.02;100.00
27587;BME280;15019;49.002;8.420;2022-09-09T05:46:52;99878.50;;;15.99;100.00
27587;BME280;15019;49.002;8.420;2022-09-09T05:49:17;99875.13;;;15.97;100.00
27587;BME280;15019;49.002;8.420;2022-09-09T05:51:42;99865.78;;;15.96;100.00
27587;BME280;15019;49.002;8.420;2022-09-09T05:54:07;99869.22;;;15.95;100.00
27587;BME280;15019;49.002;8.420;2022-09-09T05:56:32;99871.84;;;15.92;100.00
27587;BME280;15019;49.002;8.420;2022-09-09T05:58:58;99873.25;;;16.02;100.00
27587;BME280;15019;49.002;8.420;2022-09-09T06:01:24;99872.56;;;16.26;100.00
27587;BME280;15019;49.002;8.420;2022-09-09T06:03:50;99883.63;;;16.55;100.00
27587;BME280;15019;49.002;8.420;2022-09-09T06:06:16;99883.19;;;16.70;100.00
27587;BME280;15019;49.002;8.420;2022-09-09T06:08:43;99890.66;;;16.76;100.00
27587;BME280;15019;49.002;8.420;2022-09-09T06:11:10;99882.88;;;16.79;100.00
27587;BME280;15019;49.002;8.420;2022-09-09T06:13:35;99886.16;;;16.84;100.00
27587;BME280;15019;49.002;8.420;2022-09-09T06:16:00;99883.63;;;16.82;100.00
27587;BME280;15019;49.002;8.420;2022-09-09T06:18:26;99881.03;;;16.84;100.00
27587;BME280;15019;49.002;8.420;2022-09-09T06:23:19;99884.75;;;17.00;100.00
27587;BME280;15019;49.002;8.420;2022-09-09T06:25:45;99880.41;;;17.02;100.00
27587;BME280;15019;49.002;8.420;2022-09-09T06:28:10;99881.88;;;17.09;100.00
27587;BME280;15019;49.002;8.420;2022-09-09T06:30:35;99881.69;;;17.15;100.00
27587;BME280;15019;49.002;8.420;2022-09-09T06:33:00;99878.13;;;17.19;100.00
27587;BME280;15019;49.002;8.420;2022-09-09T06:35:25;99879.69;;;17.24;100.00
27587;BME280;15019;49.002;8.420;2022-09-09T06:37:50;99876.91;;;17.30;100.00
27587;BME280;15019;49.002;8.420;2022-09-09T06:40:16;99885.88;;;17.43;100.00
27587;BME280;15019;49.002;8.420;2022-09-09T06:42:41;99883.66;;;17.57;100.00
27587;BME280;15019;49.002;8.420;2022-09-09T06:45:06;99879.91;;;17.90;100.00
27587;BME280;15019;49.002;8.420;2022-09-09T06:47:32;99881.16;;;18.47;100.00
27587;BME280;15019;49.002;8.420;2022-09-09T06:49:57;99877.72;;;18.48;100.00
27587;BME280;15019;49.002;8.420;2022-09-09T06:52:22;99873.16;;;18.33;100.00
27587;BME280;15019;49.002;8.420;2022-09-09T06:54:47;99884.81;;;18.20;100.00
27587;BME280;15019;49.002;8.420;2022-09-09T06:57:12;99888.72;;;18.07;100.00
27587;BME280;15019;49.002;8.420;2022-09-09T06:59:38;99884.97;;;17.92;100.00
27587;BME280;15019;49.002;8.420;2022-09-09T07:02:03;99884.63;;;17.79;100.00
27587;BME280;15019;49.002;8.420;2022-09-09T07:04:28;99889.75;;;17.79;100.00
27587;BME280;15019;49.002;8.420;2022-09-09T07:06:53;99883.19;;;17.94;100.00
27587;BME280;15019;49.002;8.420;2022-09-09T07:09:19;99887.16;;;18.03;100.00
27587;BME280;15019;49.002;8.420;2022-09-09T07:11:45;99872.88;;;18.19;100.00
27587;BME280;15019;49.002;8.420;2022-09-09T07:14:11;99892.25;;;18.71;100.00
27587;BME280;15019;49.002;8.420;2022-09-09T07:16:36;99884.13;;;20.57;95.79
27587;BME280;15019;49.002;8.420;2022-09-09T07:19:01;99884.72;;;20.26;98.65
27587;BME280;15019;49.002;8.420;2022-09-09T07:21:27;99895.78;;;21.17;94.72
27587;BME280;15019;49.002;8.420;2022-09-09T07:23:52;99892.53;;;20.43;91.67
27587;BME280;15019;49.002;8.420;2022-09-09T07:26:20;99894.72;;;19.94;100.00
27587;BME280;15019;49.002;8.420;2022-09-09T07:28:45;99899.06;;;19.34;100.00
27587;BME280;15019;49.002;8.420;2022-09-09T07:31:14;99902.63;;;19.30;100.00
27587;BME280;15019;49.002;8.420;2022-09-09T07:33:40;99903.28;;;19.15;100.00
27587;BME280;15019;49.002;8.420;2022-09-09T07:38:40;99904.31;;;19.11;100.00
27587;BME280;15019;49.002;8.420;2022-09-09T07:41:06;99896.72;;;19.08;100.00
27587;BME280;15019;49.002;8.420;2022-09-09T07:43:32;99895.75;;;19.11;100.00
27587;BME280;15019;49.002;8.420;2022-09-09T07:45:57;99902.91;;;19.24;99.23
27587;BME280;15019;49.002;8.420;2022-09-09T07:48:23;99900.22;;;19.48;99.42
27587;BME280;15019;49.002;8.420;2022-09-09T07:50:48;99904.72;;;19.63;98.41
27587;BME280;15019;49.002;8.420;2022-09-09T07:53:13;99908.34;;;19.78;99.81
27587;BME280;15019;49.002;8.420;2022-09-09T07:55:38;99908.34;;;19.59;99.86
27587;BME280;15019;49.002;8.420;2022-09-09T07:58:03;99900.72;;;19.35;100.00
27587;BME280;15019;49.002;8.420;2022-09-09T08:00:29;99901.00;;;19.70;99.60
27587;BME280;15019;49.002;8.420;2022-09-09T08:02:54;99901.56;;;19.95;94.19
27587;BME280;15019;49.002;8.420;2022-09-09T08:05:19;99906.44;;;20.20;98.27
27587;BME280;15019;49.002;8.420;2022-09-09T08:07:45;99917.00;;;20.33;94.72
27587;BME280;15019;49.002;8.420;2022-09-09T08:10:10;99922.72;;;20.58;95.78
27587;BME280;15019;49.002;8.420;2022-09-09T08:12:36;99907.69;;;20.49;93.19
27587;BME280;15019;49.002;8.420;2022-09-09T08:15:01;99910.13;;;20.52;92.54
27587;BME280;15019;49.002;8.420;2022-09-09T08:17:26;99917.00;;;20.88;93.08
27587;BME280;15019;49.002;8.420;2022-09-09T08:19:52;99921.28;;;21.06;87.10
27587;BME280;15019;49.002;8.420;2022-09-09T08:22:17;99918.75;;;21.56;95.06
27587;BME280;15019;49.002;8.420;2022-09-09T08:24:42;99925.25;;;22.45;86.95
27587;BME280;15019;49.002;8.420;2022-09-09T08:27:07;99927.56;;;21.85;83.47
27587;BME280;15019;49.002;8.420;2022-09-09T08:29:33;99933.84;;;20.95;88.75
27587;BME280;15019;49.002;8.420;2022-09-09T08:31:58;99940.97;;;20.35;92.66
27587;BME280;15019;49.002;8.420;2022-09-09T08:34:24;99938.44;;;20.15;94.02
27587;BME280;15019;49.002;8.420;2022-09-09T08:36:49;99938.84;;;20.05;97.03
27587;BME280;15019;49.002;8.420;2022-09-09T08:39:16;99946.34;;;19.71;96.97
27587;BME280;15019;49.002;8.420;2022-09-09T08:52:13;99951.38;;;19.74;100.00
27587;BME280;15019;49.002;8.420;2022-09-09T08:54:39;99952.88;;;19.80;99.77
27587;BME280;15019;49.002;8.420;2022-09-09T08:57:05;99958.97;;;19.77;99.87
27587;BME280;15019;49.002;8.420;2022-09-09T08:59:34;99953.19;;;19.52;100.00
27587;BME280;15019;49.002;8.420;2022-09-09T09:02:02;99944.94;;;19.44;100.00
27587;BME280;15019;49.002;8.420;2022-09-09T09:04:37;99950.72;;;19.28;100.00
27587;BME280;15019;49.002;8.420;2022-09-09T09:11:57;99956.59;;;19.10;100.00
27587;BME280;15019;49.002;8.420;2022-09-09T09:14:24;99948.28;;;19.46;100.00
27587;BME280;15019;49.002;8.420;2022-09-09T09:16:54;99944.59;;;19.53;100.00
27587;BME280;15019;49.002;8.420;2022-09-09T09:19:21;99941.00;;;19.57;100.00
27587;BME280;15019;49.002;8.420;2022-09-09T09:22:02;99938.66;;;19.71;98.32
27587;BME280;15019;49.002;8.420;2022-09-09T09:26:57;99950.56;;;20.13;97.61
27587;BME280;15019;49.002;8.420;2022-09-09T09:29:24;99939.97;;;20.19;96.34
27587;BME280;15019;49.002;8.420;2022-09-09T09:31:55;99947.22;;;20.10;94.41
27587;BME280;15019;49.002;8.420;2022-09-09T09:34:22;99934.28;;;20.50;94.43
27587;BME280;15019;49.002;8.420;2022-09-09T09:36:57;99942.72;;;20.53;93.29
27587;BME280;15019;49.002;8.420;2022-09-09T09:39:24;99937.72;;;20.67;94.54
27587;BME280;15019;49.002;8.420;2022-09-09T09:41:49;99942.22;;;20.45;92.96
27587;BME280;15019;49.002;8.420;2022-09-09T09:44:28;99938.16;;;20.58;90.87
27587;BME280;15019;49.002;8.420;2022-09-09T09:47:05;99932.31;;;20.73;85.12
27587;BME280;15019;49.002;8.420;2022-09-09T09:49:30;99939.97;;;20.92;88.57
27587;BME280;15019;49.002;8.420;2022-09-09T09:51:59;99932.81;;;21.33;83.42
27587;BME280;15019;49.002;8.420;2022-09-09T09:54:27;99934.03;;;21.43;81.56
27587;BME280;15019;49.002;8.420;2022-09-09T09:56:53;99940.38;;;21.53;79.97
27587;BME280;15019;49.002;8.420;2022-09-09T09:59:36;99942.47;;;21.80;79.83
27587;BME280;15019;49.002;8.420;2022-09-09T10:02:19;99935.06;;;22.07;79.52
27587;BME280;15019;49.002;8.420;2022-09-09T10:04:44;99948.44;;;22.78;74.08
27587;BME280;15019;49.002;8.420;2022-09-09T10:07:21;99941.31;;;22.81;74.62
27587;BME280;15019;49.002;8.420;2022-09-09T10:09:49;99945.75;;;23.39;72.53
27587;BME280;15019;49.002;8.420;2022-09-09T10:12:20;99935.03;;;23.01;69.23
27587;BME280;15019;49.002;8.420;2022-09-09T10:14:55;99939.66;;;23.10;72.38
27587;BME280;15019;49.002;8.420;2022-09-09T10:22:27;99941.19;;;23.58;68.45
27587;BME280;15019;49.002;8.420;2022-09-09T10:25:02;99927.28;;;23.45;68.62
27587;BME280;15019;49.002;8.420;2022-09-09T10:35:43;99911.19;;;22.35;73.89
27587;BME280;15019;49.002;8.420;2022-09-09T10:38:16;99902.19;;;21.93;74.34
27587;BME280;15019;49.002;8.420;2022-09-09T10:43:30;99910.03;;;21.91;72.65
27587;BME280;15019;49.002;8.420;2022-09-09T10:51:22;99928.63;;;23.66;67.16
27587;BME280;15019;49.002;8.420;2022-09-09T10:56:20;99932.88;;;23.53;69.41
27587;BME280;15019;49.002;8.420;2022-09-09T11:01:21;99925.56;;;22.07;71.62
27587;BME280;15019;49.002;8.420;2022-09-09T11:03:49;99914.03;;;21.97;72.04
27587;BME280;15019;49.002;8.420;2022-09-09T11:06:19;99927.38;;;22.68;70.56
27587;BME280;15019;49.002;8.420;2022-09-09T11:08:45;99920.78;;;23.82;67.00
27587;BME280;15019;49.002;8.420;2022-09-09T11:13:44;99925.50;;;23.90;64.72
27587;BME280;15019;49.002;8.420;2022-09-09T11:19:02;99915.16;;;23.61;66.14
27587;BME280;15019;49.002;8.420;2022-09-09T11:21:31;99911.44;;;23.65;65.60
27587;BME280;15019;49.002;8.420;2022-09-09T11:24:00;99918.69;;;23.45;68.15
27587;BME280;15019;49.002;8.420;2022-09-09T11:26:37;99904.59;;;23.20;69.19
27587;BME280;15019;49.002;8.420;2022-09-09T11:36:44;99907.75;;;22.18;75.87
27587;BME280;15019;49.002;8.420;2022-09-09T11:41:55;99890.00;;;22.44;72.37
27587;BME280;15019;49.002;8.420;2022-09-09T11:44:30;99893.41;;;22.76;78.18
27587;BME280;15019;49.002;8.420;2022-09-09T11:46:55;99886.03;;;22.68;80.41
27587;BME280;15019;49.002;8.420;2022-09-09T11:49:53;99878.84;;;22.43;77.13
27587;BME280;15019;49.002;8.420;2022-09-09T11:52:18;99889.56;;;22.04;75.26
27587;BME280;15019;49.002;8.420;2022-09-09T11:54:48;99882.56;;;22.06;78.93
27587;BME280;15019;49.002;8.420;2022-09-09T11:57:34;99881.53;;;21.77;77.43
27587;BME280;15019;49.002;8.420;2022-09-09T12:00:00;99877.19;;;21.93;78.25
27587;BME280;15019;49.002;8.420;2022-09-09T12:02:26;99870.84;;;22.16;74.23
27587;BME280;15019;49.002;8.420;2022-09-09T12:04:59;99874.78;;;22.23;74.92
27587;BME280;15019;49.002;8.420;2022-09-09T12:07:31;99869.41;;;22.26;76.30
27587;BME280;15019;49.002;8.420;2022-09-09T12:10:02;99865.75;;;21.99;74.21
27587;BME280;15019;49.002;8.420;2022-09-09T12:12:37;99870.78;;;22.02;75.11
27587;BME280;15019;49.002;8.420;2022-09-09T12:17:47;99867.25;;;22.19;74.12
27587;BME280;15019;49.002;8.420;2022-09-09T12:28:11;99859.69;;;21.83;71.66
27587;BME280;15019;49.002;8.420;2022-09-09T12:33:12;99855.56;;;21.96;71.13
27587;BME280;15019;49.002;8.420;2022-09-09T12:35:37;99850.59;;;22.09;74.63
27587;BME280;15019;49.002;8.420;2022-09-09T12:38:02;99850.59;;;22.24;69.03
27587;BME280;15019;49.002;8.420;2022-09-09T12:40:30;99856.94;;;22.35;71.51
27587;BME280;15019;49.002;8.420;2022-09-09T12:42:56;99853.25;;;22.39;68.79
27587;BME280;15019;49.002;8.420;2022-09-09T12:45:25;99846.41;;;22.38;66.97
27587;BME280;15019;49.002;8.420;2022-09-09T12:47:52;99851.34;;;22.72;69.58
27587;BME280;15019;49.002;8.420;2022-09-09T12:50:20;99862.16;;;22.49;69.24
27587;BME280;15019;49.002;8.420;2022-09-09T12:52:46;99861.59;;;22.44;65.23
27587;BME280;15019;49.002;8.420;2022-09-09T12:55:15;99885.41;;;22.17;68.65
27587;BME280;15019;49.002;8.420;2022-09-09T12:57:41;99865.41;;;22.05;73.92
27587;BME280;15019;49.002;8.420;2022-09-09T13:00:17;99864.50;;;22.06;74.59
27587;BME280;15019;49.002;8.420;2022-09-09T13:02:45;99858.09;;;21.65;78.87
27587;BME280;15019;49.002;8.420;2022-09-09T13:05:14;99858.03;;;21.66;79.92
27587;BME280;15019;49.002;8.420;2022-09-09T13:07:41;99862.03;;;21.72;80.44
27587;BME280;15019;49.002;8.420;2022-09-09T13:10:07;99851.28;;;21.13;78.29
27587;BME280;15019;49.002;8.420;2022-09-09T13:12:35;99852.78;;;21.35;84.74
27587;BME280;15019;49.002;8.420;2022-09-09T13:15:00;99851.47;;;21.43;83.71
27587;BME280;15019;49.002;8.420;2022-09-09T13:17:26;99852.28;;;21.28;80.47
27587;BME280;15019;49.002;8.420;2022-09-09T13:19:52;99856.34;;;20.98;84.89
27587;BME280;15019;49.002;8.420;2022-09-09T13:24:45;99858.94;;;20.98;88.21
27587;BME280;15019;49.002;8.420;2022-09-09T13:27:28;99842.88;;;21.27;85.28
27587;BME280;15019;49.002;8.420;2022-09-09T13:29:54;99842.28;;;21.55;83.96
27587;BME280;15019;49.002;8.420;2022-09-09T13:32:20;99835.91;;;21.78;83.20
27587;BME280;15019;49.002;8.420;2022-09-09T13:34:52;99831.22;;;21.84;79.36
27587;BME280;15019;49.002;8.420;2022-09-09T13:37:22;99830.31;;;21.70;81.12
27587;BME280;15019;49.002;8.420;2022-09-09T13:39:52;99829.06;;;21.61;83.28
27587;BME280;15019;49.002;8.420;2022-09-09T13:42:38;99816.63;;;21.19;83.88
27587;BME280;15019;49.002;8.420;2022-09-09T13:45:04;99818.75;;;21.11;84.88
27587;BME280;15019;49.002;8.420;2022-09-09T13:47:33;99830.13;;;21.07;84.91
27587;BME280;15019;49.002;8.420;2022-09-09T13:50:09;99830.72;;;21.12;83.82
27587;BME280;15019;49.002;8.420;2022-09-09T13:52:35;99834.53;;;20.88;90.83
27587;BME280;15019;49.002;8.420;2022-09-09T13:55:00;99817.72;;;20.63;95.67
27587;BME280;15019;49.002;8.420;2022-09-09T13:57:25;99816.50;;;20.34;100.00
27587;BME280;15019;49.002;8.420;2022-09-09T13:59:51;99814.72;;;20.18;100.00
27587;BME280;15019;49.002;8.420;2022-09-09T14:02:17;99809.44;;;20.21;100.00
27587;BME280;15019;49.002;8.420;2022-09-09T14:04:42;99812.47;;;20.29;100.00
27587;BME280;15019;49.002;8.420;2022-09-09T14:07:11;99822.66;;;20.13;97.20
27587;BME280;15019;49.002;8.420;2022-09-09T14:09:37;99824.75;;;20.05;100.00
27587;BME280;15019;49.002;8.420;2022-09-09T14:12:02;99834.09;;;19.89;100.00
27587;BME280;15019;49.002;8.420;2022-09-09T14:14:28;99829.44;;;19.78;100.00
27587;BME280;15019;49.002;8.420;2022-09-09T14:16:53;99817.53;;;19.94;100.00
27587;BME280;15019;49.002;8.420;2022-09-09T14:19:18;99790.44;;;19.68;100.00
27587;BME280;15019;49.002;8.420;2022-09-09T14:21:43;99807.69;;;18.87;100.00
27587;BME280;15019;49.002;8.420;2022-09-09T14:24:08;99846.13;;;18.46;100.00
27587;BME280;15019;49.002;8.420;2022-09-09T14:26:34;99847.69;;;18.50;100.00
27587;BME280;15019;49.002;8.420;2022-09-09T14:28:59;99845.56;;;18.61;100.00
27587;BME280;15019;49.002;8.420;2022-09-09T14:31:24;99844.00;;;18.57;100.00
27587;BME280;15019;49.002;8.420;2022-09-09T14:33:49;99840.31;;;18.64;100.00
27587;BME280;15019;49.002;8.420;2022-09-09T14:36:15;99843.38;;;18.51;100.00
27587;BME280;15019;49.002;8.420;2022-09-09T14:38:40;99841.94;;;18.44;100.00